createdAt,value
2019-05-14T00:01:08.734Z,17.60
2019-05-14T00:03:36.072Z,17.70
2019-05-14T00:06:03.098Z,17.80
2019-05-14T00:08:31.463Z,17.70
2019-05-14T00:11:01.209Z,17.80
2019-05-14T00:13:27.643Z,17.80
2019-05-14T00:15:54.618Z,17.80
2019-05-14T00:18:22.457Z,17.80
2019-05-14T00:20:51.204Z,17.70
2019-05-14T00:23:18.588Z,17.40
2019-05-14T00:25:45.681Z,17.10
2019-05-14T00:28:12.522Z,17.10
2019-05-14T00:30:42.094Z,17.10
2019-05-14T00:33:08.457Z,17.00
2019-05-14T00:35:35.886Z,17.10
2019-05-14T00:38:02.774Z,17.00
2019-05-14T00:40:31.384Z,16.90
2019-05-14T00:42:58.498Z,16.90
2019-05-14T00:45:25.499Z,16.80
2019-05-14T00:47:52.638Z,16.90
2019-05-14T00:50:21.633Z,16.80
2019-05-14T00:52:48.472Z,16.80
2019-05-14T00:55:15.829Z,16.70
2019-05-14T00:57:42.866Z,16.70
2019-05-14T01:00:11.672Z,16.60
2019-05-14T01:02:41.310Z,16.50
2019-05-14T01:05:08.469Z,16.40
2019-05-14T01:07:35.363Z,16.40
2019-05-14T01:10:06.184Z,16.20
2019-05-14T01:12:33.018Z,16.10
2019-05-14T01:15:07.757Z,16.10
2019-05-14T01:17:29.037Z,16.00
2019-05-14T01:19:56.004Z,16.00
2019-05-14T01:22:22.913Z,16.00
2019-05-14T01:24:52.062Z,16.00
2019-05-14T01:27:21.000Z,16.00
2019-05-14T01:29:47.962Z,16.10
2019-05-14T01:32:14.896Z,16.00
2019-05-14T01:34:42.267Z,16.00
2019-05-14T01:37:11.706Z,16.00
2019-05-14T01:39:41.473Z,15.90
2019-05-14T01:42:07.626Z,15.80
2019-05-14T01:44:34.544Z,15.70
2019-05-14T01:47:02.070Z,15.60
2019-05-14T01:49:31.927Z,15.50
2019-05-14T01:51:59.028Z,15.30
2019-05-14T01:54:26.222Z,15.30
2019-05-14T01:56:53.361Z,15.10
2019-05-14T01:59:21.330Z,15.00
2019-05-14T02:01:48.593Z,14.90
2019-05-14T02:04:15.736Z,15.00
2019-05-14T02:06:42.575Z,14.90
2019-05-14T02:09:11.098Z,14.80
2019-05-14T02:11:38.431Z,14.70
2019-05-14T02:14:05.655Z,14.50
2019-05-14T02:16:32.915Z,14.50
2019-05-14T02:19:01.370Z,14.40
2019-05-14T02:21:28.825Z,14.40
2019-05-14T02:23:55.985Z,14.30
2019-05-14T02:26:23.110Z,14.30
2019-05-14T02:28:51.404Z,14.20
2019-05-14T02:31:20.136Z,14.20
2019-05-14T02:33:50.435Z,14.10
2019-05-14T02:36:19.490Z,14.10
2019-05-14T02:38:45.644Z,15.00
2019-05-14T02:41:12.758Z,14.00
2019-05-14T02:43:40.889Z,14.10
2019-05-14T02:46:13.084Z,14.00
2019-05-14T02:48:40.232Z,13.90
2019-05-14T02:51:06.216Z,14.00
2019-05-14T02:53:33.133Z,14.00
2019-05-14T02:56:00.284Z,14.00
2019-05-14T02:58:29.961Z,13.90
2019-05-14T03:01:00.041Z,13.90
2019-05-14T03:03:25.430Z,13.90
2019-05-14T03:05:52.537Z,13.90
2019-05-14T03:08:20.123Z,13.90
2019-05-14T03:10:50.144Z,13.80
2019-05-14T03:13:19.981Z,13.90
2019-05-14T03:15:49.477Z,13.80
2019-05-14T03:18:15.005Z,13.70
2019-05-14T03:20:42.033Z,13.70
2019-05-14T03:23:17.573Z,13.70
2019-05-14T03:25:39.990Z,13.70
2019-05-14T03:28:09.282Z,13.80
2019-05-14T03:30:41.747Z,13.90
2019-05-14T03:33:06.053Z,14.00
2019-05-14T03:35:42.418Z,14.00
2019-05-14T03:38:02.086Z,13.90
2019-05-14T03:40:29.509Z,13.80
2019-05-14T03:42:59.600Z,13.70
2019-05-14T03:45:25.704Z,13.60
2019-05-14T03:47:52.635Z,13.50
2019-05-14T03:50:19.466Z,13.50
2019-05-14T03:52:49.564Z,13.40
2019-05-14T03:55:15.444Z,13.20
2019-05-14T03:57:42.897Z,13.30
2019-05-14T04:00:10.714Z,13.20
2019-05-14T04:02:39.094Z,13.20
2019-05-14T04:05:09.562Z,13.20
2019-05-14T04:07:39.330Z,13.40
2019-05-14T04:10:09.467Z,13.50
2019-05-14T04:12:40.405Z,13.50
2019-05-14T04:15:09.745Z,13.60
2019-05-14T04:17:42.356Z,13.60
2019-05-14T04:20:09.369Z,13.60
2019-05-14T04:22:39.316Z,13.60
2019-05-14T04:25:10.815Z,13.60
2019-05-14T04:27:40.159Z,13.60
2019-05-14T04:30:09.561Z,13.50
2019-05-14T04:32:39.496Z,13.60
2019-05-14T04:35:09.611Z,13.60
2019-05-14T04:37:39.630Z,13.70
2019-05-14T04:40:09.696Z,13.80
2019-05-14T04:42:36.004Z,13.90
2019-05-14T04:45:06.036Z,14.00
2019-05-14T04:47:37.337Z,14.10
2019-05-14T04:50:10.256Z,14.10
2019-05-14T04:52:35.567Z,14.10
2019-05-14T04:55:03.992Z,14.00
2019-05-14T04:57:31.035Z,14.00
2019-05-14T04:59:59.814Z,14.10
2019-05-14T05:02:29.843Z,14.10
2019-05-14T05:04:55.422Z,14.20
2019-05-14T05:07:22.217Z,14.10
2019-05-14T05:09:50.178Z,14.10
2019-05-14T05:12:19.691Z,14.20
2019-05-14T05:14:49.338Z,14.10
2019-05-14T05:17:16.167Z,14.10
2019-05-14T05:19:45.835Z,14.10
2019-05-14T05:22:11.771Z,14.00
2019-05-14T05:24:38.556Z,14.10
2019-05-14T05:27:05.350Z,14.10
2019-05-14T05:29:32.358Z,14.10
2019-05-14T05:31:59.527Z,14.10
2019-05-14T05:34:28.283Z,14.10
2019-05-14T05:36:55.424Z,14.20
2019-05-14T05:39:22.340Z,14.30
2019-05-14T05:41:49.374Z,14.30
2019-05-14T05:44:18.613Z,14.30
2019-05-14T05:46:45.254Z,14.30
2019-05-14T05:49:12.495Z,14.20
2019-05-14T05:51:39.476Z,14.20
2019-05-14T05:54:06.497Z,14.20
2019-05-14T05:56:33.363Z,14.20
2019-05-14T05:59:00.727Z,14.10
2019-05-14T06:01:41.760Z,14.00
2019-05-14T06:03:58.367Z,14.00
2019-05-14T06:06:25.396Z,14.00
2019-05-14T06:08:52.249Z,14.10
2019-05-14T06:11:19.570Z,14.20
2019-05-14T06:13:48.499Z,14.30
2019-05-14T06:16:15.382Z,14.30
2019-05-14T06:18:42.339Z,14.30
2019-05-14T06:21:09.391Z,14.30
2019-05-14T06:23:38.615Z,14.40
2019-05-14T06:26:05.207Z,14.40
2019-05-14T06:28:33.505Z,14.40
2019-05-14T06:31:00.721Z,14.50
2019-05-14T06:33:28.607Z,14.50
2019-05-14T06:35:55.975Z,14.50
2019-05-14T06:38:22.960Z,14.50
2019-05-14T06:40:49.905Z,14.40
2019-05-14T06:43:18.852Z,14.40
2019-05-14T06:45:45.412Z,14.50
2019-05-14T06:48:26.907Z,14.50
2019-05-14T06:50:41.121Z,14.40
2019-05-14T06:53:08.512Z,14.50
2019-05-14T06:55:35.425Z,14.50
2019-05-14T06:58:02.320Z,14.60
2019-05-14T07:00:29.162Z,14.70
2019-05-14T07:02:58.200Z,14.80
2019-05-14T07:05:24.629Z,14.80
2019-05-14T07:07:51.444Z,14.90
2019-05-14T07:10:19.872Z,15.00
2019-05-14T07:12:46.645Z,15.10
2019-05-14T07:15:14.331Z,15.10
2019-05-14T07:17:41.184Z,15.20
2019-05-14T07:20:09.115Z,15.30
2019-05-14T07:22:35.984Z,15.30
2019-05-14T07:25:06.007Z,15.40
2019-05-14T07:27:32.912Z,15.50
2019-05-14T07:29:59.709Z,15.50
2019-05-14T07:32:28.720Z,15.60
2019-05-14T07:34:55.205Z,15.60
2019-05-14T07:37:22.009Z,15.60
2019-05-14T07:39:48.991Z,15.60
2019-05-14T07:42:18.165Z,15.70
2019-05-14T07:44:44.551Z,15.70
2019-05-14T07:47:11.384Z,15.80
2019-05-14T07:49:38.736Z,15.80
2019-05-14T07:52:05.652Z,15.80
2019-05-14T07:54:32.583Z,15.90
2019-05-14T07:56:59.385Z,16.10
2019-05-14T07:59:28.549Z,16.10
2019-05-14T08:01:54.889Z,16.20
2019-05-14T08:04:21.664Z,16.20
2019-05-14T08:06:48.883Z,16.20
2019-05-14T08:09:16.069Z,16.30
2019-05-14T08:11:42.872Z,16.30
2019-05-14T08:14:09.664Z,16.40
2019-05-14T08:16:38.143Z,16.50
2019-05-14T08:19:22.899Z,16.50
2019-05-14T08:21:34.093Z,16.50
2019-05-14T08:24:01.160Z,16.60
2019-05-14T08:26:29.354Z,16.70
2019-05-14T08:28:58.069Z,16.70
2019-05-14T08:31:25.092Z,16.80
2019-05-14T08:33:51.882Z,16.80
2019-05-14T08:36:18.850Z,16.90
2019-05-14T08:38:47.440Z,17.00
2019-05-14T08:41:14.723Z,17.00
2019-05-14T08:43:41.512Z,17.00
2019-05-14T08:46:08.438Z,17.10
2019-05-14T08:48:35.312Z,17.20
2019-05-14T08:51:02.116Z,17.20
2019-05-14T08:53:29.198Z,17.20
2019-05-14T08:55:55.993Z,17.30
2019-05-14T08:58:22.906Z,17.40
2019-05-14T09:00:49.919Z,17.40
2019-05-14T09:03:19.096Z,17.50
2019-05-14T09:05:45.412Z,17.50
2019-05-14T09:08:12.222Z,17.60
2019-05-14T09:10:40.231Z,17.60
2019-05-14T09:13:08.595Z,17.60
2019-05-14T09:15:38.327Z,17.60
2019-05-14T09:18:04.571Z,17.70
2019-05-14T09:20:31.538Z,17.60
2019-05-14T09:22:59.526Z,17.70
2019-05-14T09:25:29.012Z,17.70
2019-05-14T09:27:55.190Z,17.80
2019-05-14T09:30:23.174Z,17.80
2019-05-14T09:32:49.960Z,17.90
2019-05-14T09:35:18.893Z,18.00
2019-05-14T09:37:45.757Z,18.00
2019-05-14T09:40:15.671Z,18.20
2019-05-14T09:42:42.456Z,18.20
2019-05-14T09:45:11.133Z,18.30
2019-05-14T09:47:38.733Z,18.40
2019-05-14T09:50:16.394Z,18.40
2019-05-14T09:52:39.146Z,18.50
2019-05-14T09:55:09.149Z,18.50
2019-05-14T09:57:35.362Z,18.60
2019-05-14T10:00:04.213Z,18.70
2019-05-14T10:02:31.378Z,18.70
2019-05-14T10:04:59.759Z,18.80
2019-05-14T10:07:28.703Z,18.90
2019-05-14T10:09:55.722Z,18.90
2019-05-14T10:12:22.522Z,18.90
2019-05-14T10:14:49.495Z,19.00
2019-05-14T10:17:19.177Z,19.00
2019-05-14T10:19:45.026Z,19.00
2019-05-14T10:22:12.016Z,19.10
2019-05-14T10:24:38.978Z,19.10
2019-05-14T10:27:08.843Z,19.20
2019-05-14T10:29:34.930Z,19.20
2019-05-14T10:32:01.724Z,19.30
2019-05-14T10:34:28.853Z,19.30
2019-05-14T10:36:55.841Z,19.40
2019-05-14T10:39:22.631Z,19.50
2019-05-14T10:41:49.435Z,19.50
2019-05-14T10:44:18.679Z,19.50
2019-05-14T10:46:45.502Z,19.60
2019-05-14T10:49:20.538Z,19.70
2019-05-14T10:51:41.219Z,19.80
2019-05-14T10:54:20.951Z,19.90
2019-05-14T10:56:36.724Z,20.00
2019-05-14T10:59:03.898Z,20.00
2019-05-14T11:01:30.683Z,20.10
2019-05-14T11:03:57.748Z,20.20
2019-05-14T11:06:24.923Z,20.20
2019-05-14T11:08:51.716Z,20.30
2019-05-14T11:11:18.754Z,20.40
2019-05-14T11:13:45.774Z,20.50
2019-05-14T11:16:12.597Z,20.50
2019-05-14T11:18:40.056Z,20.60
2019-05-14T11:21:19.784Z,20.70
2019-05-14T11:23:38.405Z,20.80
2019-05-14T11:26:05.303Z,20.80
2019-05-14T11:28:32.096Z,20.90
2019-05-14T11:30:59.200Z,20.90
2019-05-14T11:33:26.327Z,21.00
2019-05-14T11:35:53.614Z,21.10
2019-05-14T11:38:31.811Z,21.20
2019-05-14T11:40:49.652Z,21.30
2019-05-14T11:43:17.012Z,21.40
2019-05-14T11:45:44.327Z,21.50
2019-05-14T11:48:11.163Z,21.60
2019-05-14T11:50:37.967Z,21.70
2019-05-14T11:53:05.196Z,21.90
2019-05-14T11:55:32.184Z,22.00
2019-05-14T11:57:59.500Z,22.10
2019-05-14T12:00:29.349Z,22.30
2019-05-14T12:02:55.425Z,22.40
2019-05-14T12:05:22.279Z,22.50
2019-05-14T12:07:49.086Z,22.60
2019-05-14T12:10:18.437Z,22.70
2019-05-14T12:12:45.425Z,22.80
2019-05-14T12:15:12.318Z,23.00
2019-05-14T12:17:39.715Z,23.00
2019-05-14T12:20:09.111Z,23.20
2019-05-14T12:22:35.893Z,23.40
2019-05-14T12:25:04.913Z,23.50
2019-05-14T12:27:31.724Z,23.50
2019-05-14T12:29:59.829Z,23.60
2019-05-14T12:32:29.353Z,23.70
2019-05-14T12:34:55.578Z,23.80
2019-05-14T12:37:22.367Z,23.90
2019-05-14T12:39:49.209Z,24.00
2019-05-14T12:42:19.082Z,24.10
2019-05-14T12:44:44.924Z,24.20
2019-05-14T12:47:11.715Z,24.30
2019-05-14T12:49:38.925Z,24.40
2019-05-14T12:52:21.018Z,24.40
2019-05-14T12:54:34.509Z,24.50
2019-05-14T12:57:01.326Z,24.60
2019-05-14T12:59:28.559Z,24.70
2019-05-14T13:01:58.450Z,24.80
2019-05-14T13:04:24.447Z,25.00
2019-05-14T13:06:51.299Z,25.00
2019-05-14T13:09:21.458Z,25.10
2019-05-14T13:11:48.032Z,25.10
2019-05-14T13:14:15.051Z,25.30
2019-05-14T13:16:42.101Z,25.30
2019-05-14T13:19:09.308Z,25.30
2019-05-14T13:21:38.850Z,25.40
2019-05-14T13:24:05.215Z,25.40
2019-05-14T13:26:32.031Z,25.50
2019-05-14T13:28:59.112Z,25.60
2019-05-14T13:31:29.013Z,25.70
2019-05-14T13:33:54.796Z,25.70
2019-05-14T13:36:21.626Z,25.80
2019-05-14T13:38:49.063Z,25.90
2019-05-14T13:41:16.157Z,26.00
2019-05-14T13:43:43.048Z,26.10
2019-05-14T13:46:12.636Z,26.20
2019-05-14T13:48:42.834Z,26.20
2019-05-14T13:51:08.957Z,26.30
2019-05-14T13:53:39.039Z,26.40
2019-05-14T13:56:09.020Z,26.50
2019-05-14T13:58:35.211Z,26.40
2019-05-14T14:01:02.114Z,26.50
2019-05-14T14:03:29.445Z,26.50
2019-05-14T14:05:59.362Z,26.60
2019-05-14T14:08:28.992Z,26.70
2019-05-14T14:10:54.631Z,26.70
2019-05-14T14:13:21.666Z,26.80
2019-05-14T14:15:48.912Z,26.80
2019-05-14T14:18:20.688Z,26.80
2019-05-14T14:20:45.033Z,26.90
2019-05-14T14:23:21.918Z,26.80
2019-05-14T14:25:41.331Z,26.70
2019-05-14T14:28:09.962Z,27.00
2019-05-14T14:30:39.294Z,27.00
2019-05-14T14:33:05.615Z,27.10
2019-05-14T14:35:33.557Z,27.10
2019-05-14T14:38:00.541Z,27.20
2019-05-14T14:40:30.057Z,27.20
2019-05-14T14:42:59.341Z,27.30
2019-05-14T14:45:29.005Z,27.30
2019-05-14T14:47:54.271Z,27.40
2019-05-14T14:50:21.101Z,27.50
2019-05-14T14:52:49.530Z,27.60
2019-05-14T14:55:19.323Z,27.60
2019-05-14T14:57:52.961Z,27.60
2019-05-14T15:00:16.093Z,27.70
2019-05-14T15:02:43.281Z,27.70
2019-05-14T15:05:14.258Z,27.70
2019-05-14T15:07:40.907Z,27.80
2019-05-14T15:10:08.795Z,27.80
2019-05-14T15:12:39.144Z,27.80
2019-05-14T15:15:05.790Z,28.00
2019-05-14T15:17:32.914Z,28.00
2019-05-14T15:19:59.747Z,28.10
2019-05-14T15:22:30.459Z,28.20
2019-05-14T15:24:58.406Z,28.30
2019-05-14T15:27:25.102Z,28.30
2019-05-14T15:29:51.898Z,28.30
2019-05-14T15:32:19.629Z,28.40
2019-05-14T15:34:50.349Z,28.40
2019-05-14T15:37:15.553Z,28.30
2019-05-14T15:39:42.693Z,28.30
2019-05-14T15:42:13.670Z,28.30
2019-05-14T15:44:48.998Z,28.40
2019-05-14T15:47:11.231Z,28.50
2019-05-14T15:49:35.797Z,28.50
2019-05-14T15:52:02.878Z,28.50
2019-05-14T15:54:42.187Z,28.60
2019-05-14T15:56:58.836Z,28.80
2019-05-14T15:59:28.362Z,28.90
2019-05-14T16:01:54.638Z,29.00
2019-05-14T16:04:21.759Z,29.20
2019-05-14T16:06:48.973Z,29.30
2019-05-14T16:09:19.177Z,29.50
2019-05-14T16:11:45.247Z,29.70
2019-05-14T16:14:12.027Z,29.90
2019-05-14T16:16:39.273Z,30.20
2019-05-14T16:19:08.226Z,30.40
2019-05-14T16:21:34.978Z,30.30
2019-05-14T16:24:02.296Z,30.40
2019-05-14T16:26:29.359Z,30.60
2019-05-14T16:28:58.824Z,30.60
2019-05-14T16:31:25.333Z,30.80
2019-05-14T16:33:52.171Z,31.00
2019-05-14T16:36:18.988Z,31.00
2019-05-14T16:38:48.171Z,31.10
2019-05-14T16:41:14.526Z,31.10
2019-05-14T16:43:41.892Z,31.20
2019-05-14T16:46:09.602Z,31.10
2019-05-14T16:48:39.407Z,31.30
2019-05-14T16:51:06.013Z,31.30
2019-05-14T16:53:32.978Z,31.10
2019-05-14T16:55:59.784Z,31.20
2019-05-14T16:58:29.038Z,31.10
2019-05-14T17:00:58.683Z,31.10
2019-05-14T17:03:24.744Z,31.10
2019-05-14T17:05:51.541Z,31.00
2019-05-14T17:08:19.185Z,31.30
2019-05-14T17:10:48.263Z,31.20
2019-05-14T17:13:15.045Z,31.10
2019-05-14T17:15:41.909Z,31.20
2019-05-14T17:18:09.005Z,31.10
2019-05-14T17:20:36.231Z,31.00
2019-05-14T17:23:03.517Z,31.10
2019-05-14T17:25:30.654Z,31.20
2019-05-14T17:27:59.400Z,31.20
2019-05-14T17:30:28.922Z,31.10
2019-05-14T17:32:55.234Z,31.20
2019-05-14T17:35:22.061Z,31.20
2019-05-14T17:37:48.884Z,31.00
2019-05-14T17:40:16.398Z,31.00
2019-05-14T17:42:43.277Z,30.90
2019-05-14T17:45:10.140Z,30.90
2019-05-14T17:47:38.783Z,30.80
2019-05-14T17:50:07.400Z,30.70
2019-05-14T17:52:34.438Z,30.60
2019-05-14T17:55:01.514Z,30.70
2019-05-14T17:57:35.019Z,30.50
2019-05-14T17:59:58.389Z,30.50
2019-05-14T18:02:28.592Z,30.40
2019-05-14T18:04:57.026Z,30.30
2019-05-14T18:07:23.536Z,30.40
2019-05-14T18:09:50.334Z,30.40
2019-05-14T18:12:19.056Z,30.30
2019-05-14T18:14:48.093Z,30.10
2019-05-14T18:17:15.517Z,29.90
2019-05-14T18:19:42.325Z,29.70
2019-05-14T18:22:09.158Z,29.50
2019-05-14T18:24:35.948Z,29.40
2019-05-14T18:27:02.754Z,29.20
2019-05-14T18:29:29.798Z,29.00
2019-05-14T18:32:00.959Z,29.00
2019-05-14T18:34:25.569Z,28.70
2019-05-14T18:36:52.759Z,28.50
2019-05-14T18:39:20.911Z,28.30
2019-05-14T18:41:49.896Z,28.10
2019-05-14T18:44:18.972Z,28.00
2019-05-14T18:46:48.429Z,27.80
2019-05-14T18:49:14.717Z,27.50
2019-05-14T18:51:41.615Z,27.30
2019-05-14T18:54:08.408Z,27.00
2019-05-14T18:56:35.225Z,26.80
2019-05-14T18:59:02.145Z,26.70
2019-05-14T19:01:29.245Z,26.60
2019-05-14T19:03:58.744Z,26.50
2019-05-14T19:06:25.125Z,26.20
2019-05-14T19:08:52.154Z,26.10
2019-05-14T19:11:19.045Z,25.90
2019-05-14T19:13:48.197Z,25.70
2019-05-14T19:16:15.158Z,25.60
2019-05-14T19:18:42.265Z,25.50
2019-05-14T19:21:09.057Z,25.30
2019-05-14T19:23:38.258Z,25.20
2019-05-14T19:26:04.662Z,25.00
2019-05-14T19:28:31.470Z,24.90
2019-05-14T19:30:59.630Z,25.00
2019-05-14T19:33:28.664Z,25.00
2019-05-14T19:35:55.624Z,24.80
2019-05-14T19:38:22.839Z,24.60
2019-05-14T19:40:49.656Z,24.50
2019-05-14T19:43:18.927Z,24.40
2019-05-14T19:45:45.250Z,24.30
2019-05-14T19:48:12.238Z,24.20
2019-05-14T19:50:39.486Z,24.20
2019-05-14T19:53:08.918Z,24.10
2019-05-14T19:55:35.533Z,24.00
2019-05-14T19:58:02.770Z,23.90
2019-05-14T20:00:29.564Z,23.80
2019-05-14T20:02:58.201Z,23.80
2019-05-14T20:05:25.115Z,23.70
2019-05-14T20:07:52.401Z,23.60
2019-05-14T20:10:19.202Z,23.50
2019-05-14T20:12:48.169Z,23.50
2019-05-14T20:15:15.343Z,23.50
2019-05-14T20:17:42.186Z,23.40
2019-05-14T20:20:09.625Z,23.40
2019-05-14T20:22:39.185Z,23.30
2019-05-14T20:25:08.767Z,23.30
2019-05-14T20:27:35.651Z,23.10
2019-05-14T20:30:08.726Z,23.00
2019-05-14T20:32:35.583Z,22.90
2019-05-14T20:35:05.484Z,22.80
2019-05-14T20:37:32.343Z,22.70
2019-05-14T20:39:59.204Z,22.60
2019-05-14T20:42:28.864Z,22.50
2019-05-14T20:44:55.391Z,22.30
2019-05-14T20:47:22.185Z,22.20
2019-05-14T20:49:49.005Z,22.00
2019-05-14T20:52:15.798Z,21.90
2019-05-14T20:54:42.720Z,21.80
2019-05-14T20:57:23.411Z,21.70
2019-05-14T20:59:38.964Z,21.60
2019-05-14T21:02:08.246Z,21.60
2019-05-14T21:04:35.182Z,21.70
2019-05-14T21:07:02.259Z,21.60
2019-05-14T21:09:29.097Z,21.60
2019-05-14T21:11:56.277Z,21.50
2019-05-14T21:14:25.137Z,21.40
2019-05-14T21:16:52.089Z,21.30
2019-05-14T21:19:18.918Z,21.30
2019-05-14T21:21:45.712Z,21.30
2019-05-14T21:24:12.610Z,21.30
2019-05-14T21:26:40.288Z,21.20
2019-05-14T21:29:07.948Z,21.20
2019-05-14T21:31:34.910Z,21.20
2019-05-14T21:34:01.717Z,21.20
2019-05-14T21:36:28.547Z,21.20
2019-05-14T21:38:55.386Z,21.40
2019-05-14T21:41:22.181Z,21.20
2019-05-14T21:43:49.315Z,21.20
2019-05-14T21:46:16.312Z,21.10
2019-05-14T21:48:43.133Z,21.10
2019-05-14T21:51:09.922Z,21.00
2019-05-14T21:53:40.813Z,20.90
2019-05-14T21:56:05.640Z,20.60
2019-05-14T21:58:32.452Z,20.60
2019-05-14T22:01:01.126Z,20.50
2019-05-14T22:03:28.661Z,20.30
2019-05-14T22:05:55.461Z,20.10
2019-05-14T22:08:22.243Z,20.00
2019-05-14T22:10:49.084Z,20.10
2019-05-14T22:13:18.062Z,20.00
2019-05-14T22:15:44.554Z,20.00
2019-05-14T22:18:17.708Z,19.90
2019-05-14T22:20:40.417Z,19.90
2019-05-14T22:23:08.841Z,19.90
2019-05-14T22:25:35.929Z,20.00
2019-05-14T22:28:14.700Z,20.00
2019-05-14T22:30:31.545Z,20.10
2019-05-14T22:33:00.736Z,20.10
2019-05-14T22:35:28.315Z,20.20
2019-05-14T22:37:55.945Z,20.30
2019-05-14T22:40:22.774Z,20.30
2019-05-14T22:42:49.568Z,20.20
2019-05-14T22:45:18.556Z,20.30
2019-05-14T22:47:45.430Z,20.30
2019-05-14T22:50:12.650Z,20.30
2019-05-14T22:52:39.443Z,20.20
2019-05-14T22:55:06.646Z,20.10
2019-05-14T22:57:33.479Z,20.10
2019-05-14T23:00:00.566Z,20.10
2019-05-14T23:02:28.475Z,20.20
2019-05-14T23:04:58.431Z,20.20
2019-05-14T23:07:24.941Z,20.20
2019-05-14T23:09:51.760Z,20.20
2019-05-14T23:12:18.562Z,20.10
2019-05-14T23:14:45.349Z,20.00
2019-05-14T23:17:12.157Z,20.00
2019-05-14T23:19:38.964Z,19.80
2019-05-14T23:22:05.764Z,19.70
2019-05-14T23:24:32.761Z,19.70
2019-05-14T23:26:59.667Z,19.70
2019-05-14T23:29:28.663Z,19.70
2019-05-14T23:31:55.985Z,19.50
2019-05-14T23:34:22.816Z,19.30
2019-05-14T23:36:49.618Z,19.10
2019-05-14T23:39:17.210Z,18.90
2019-05-14T23:41:44.635Z,18.80
2019-05-14T23:44:11.448Z,18.80
2019-05-14T23:46:38.636Z,18.70
2019-05-14T23:49:05.433Z,18.60
2019-05-14T23:51:32.236Z,18.50
2019-05-14T23:53:59.440Z,18.70
2019-05-14T23:56:28.636Z,18.60
2019-05-14T23:58:59.431Z,18.60
